Time;durP1;ratioP1;P1;durP2;ratioP2;P2;SDS_P1;SDS_P2;PMS_P1;PMS_P2;Temp;Humidity;BMP_temperature;BMP_pressure;BME280_temperature;BME280_humidity;BME280_pressure;Samples;Min_cycle;Max_cycle;Signal;HPM_P1;HPM_P2
2022/05/27 00:00:48;;;;;;;9.63;2.05;;;14.90;99.90;;;;;;5076247;28;20052;-75
2022/05/27 00:03:16;;;;;;;6.35;1.75;;;14.90;99.90;;;;;;5075962;28;20044;-75
2022/05/27 00:05:47;;;;;;;11.80;1.95;;;14.90;99.90;;;;;;5057629;28;20047;-75
2022/05/27 00:08:15;;;;;;;7.28;1.73;;;14.80;99.90;;;;;;5075882;28;20051;-74
2022/05/27 00:10:43;;;;;;;5.93;1.40;;;14.80;99.90;;;;;;5075994;28;20045;-75
2022/05/27 00:13:11;;;;;;;6.75;1.60;;;14.80;99.90;;;;;;5074629;28;20049;-74
2022/05/27 00:15:41;;;;;;;6.10;1.55;;;14.80;99.90;;;;;;5075568;28;20063;-74
2022/05/27 00:18:09;;;;;;;4.85;0.93;;;14.70;99.90;;;;;;5074873;28;20482;-75
2022/05/27 00:20:37;;;;;;;5.13;1.23;;;14.70;99.90;;;;;;5057986;28;20049;-75
2022/05/27 00:23:05;;;;;;;;;;;14.70;99.90;;;;;;5041879;28;20056;-75
2022/05/27 00:25:33;;;;;;;4.55;1.17;;;14.70;99.90;;;;;;5074279;28;20374;-75
2022/05/27 00:28:01;;;;;;;4.68;1.23;;;14.70;99.90;;;;;;5075255;28;20045;-75
2022/05/27 00:30:31;;;;;;;7.22;1.30;;;14.70;99.90;;;;;;5057899;28;20123;-75
2022/05/27 00:32:59;;;;;;;4.05;1.10;;;14.70;99.90;;;;;;5074255;28;20055;-75
2022/05/27 00:35:27;;;;;;;4.78;0.82;;;14.70;99.90;;;;;;5075190;28;20379;-74
2022/05/27 00:37:56;;;;;;;;;;;14.80;99.90;;;;;;5056982;28;20048;-74
2022/05/27 00:40:25;;;;;;;3.72;0.90;;;14.80;99.90;;;;;;5058489;28;19921;-74
2022/05/27 00:42:52;;;;;;;4.32;1.17;;;14.80;99.90;;;;;;5075389;28;20059;-76
2022/05/27 00:45:23;;;;;;;6.55;1.00;;;14.70;99.90;;;;;;5074016;28;20482;-74
2022/05/27 00:47:53;;;;;;;4.50;0.98;;;14.80;99.90;;;;;;5074980;28;20052;-74
2022/05/27 00:50:26;;;;;;;3.13;1.10;;;14.80;99.90;;;;;;5041743;28;20102;-74
2022/05/27 00:52:55;;;;;;;4.88;1.08;;;14.80;99.90;;;;;;5074236;28;20044;-74
2022/05/27 00:55:28;;;;;;;3.80;1.10;;;14.80;99.90;;;;;;5074880;28;20041;-75
2022/05/27 00:58:08;;;;;;;2.35;1.00;;;14.80;99.90;;;;;;5073870;28;20048;-74
2022/05/27 01:00:36;;;;;;;7.80;1.08;;;14.80;99.90;;;;;;5074831;28;20410;-75
2022/05/27 01:03:06;;;;;;;3.20;1.13;;;14.80;99.90;;;;;;5057326;28;20059;-75
2022/05/27 01:05:33;;;;;;;2.72;1.15;;;14.80;99.90;;;;;;5056350;28;20048;-75
2022/05/27 01:08:05;;;;;;;3.03;1.13;;;14.80;99.90;;;;;;5074690;28;20041;-74
2022/05/27 01:10:48;;;;;;;4.32;1.30;;;14.60;99.90;;;;;;5074726;28;20387;-73
2022/05/27 01:13:55;;;;;;;3.38;1.20;;;14.70;99.90;;;;;;5073680;28;20052;-75
2022/05/27 01:16:39;;;;;;;5.28;1.42;;;14.60;99.90;;;;;;5075059;28;20045;-74
2022/05/27 01:22:17;;;;;;;7.53;1.42;;;14.50;99.90;;;;;;5057218;28;20052;-74
2022/05/27 01:25:14;;;;;;;4.13;1.35;;;14.50;99.90;;;;;;5056148;28;20463;-74
2022/05/27 01:27:59;;;;;;;4.35;1.73;;;14.40;99.90;;;;;;5037292;28;20521;-75
2022/05/27 01:30:35;;;;;;;5.43;2.10;;;14.40;99.90;;;;;;5075138;28;20049;-74
2022/05/27 01:33:05;;;;;;;6.00;1.80;;;14.40;99.90;;;;;;5073428;28;20060;-73
2022/05/27 01:35:48;;;;;;;6.38;1.65;;;14.30;99.90;;;;;;5074683;28;20048;-73
2022/05/27 01:38:44;;;;;;;6.25;2.00;;;14.20;99.90;;;;;;5073342;28;20465;-74
2022/05/27 01:42:08;;;;;;;7.20;2.38;;;14.10;99.90;;;;;;5076325;28;20049;-74
2022/05/27 01:44:56;;;;;;;7.05;2.20;;;14.00;99.90;;;;;;4976825;28;20482;-75
2022/05/27 01:47:44;;;;;;;6.75;2.10;;;13.90;99.90;;;;;;4977850;28;20046;-75
2022/05/27 01:50:22;;;;;;;6.45;2.10;;;13.80;99.90;;;;;;5054977;28;20371;-74
2022/05/27 01:53:01;;;;;;;7.47;2.30;;;13.80;99.90;;;;;;5059993;28;20067;-75
2022/05/27 01:55:40;;;;;;;10.68;2.20;;;13.70;99.90;;;;;;5078300;28;20045;-74
2022/05/27 01:58:12;;;;;;;5.10;2.00;;;13.70;99.90;;;;;;5077235;28;20047;-74
2022/05/27 02:00:42;;;;;;;10.00;2.38;;;13.60;99.90;;;;;;5078447;28;20455;-75
2022/05/27 02:03:29;;;;;;;7.82;2.40;;;13.60;99.90;;;;;;5078836;28;20044;-74
2022/05/27 02:06:05;;;;;;;10.55;2.20;;;13.60;99.90;;;;;;5077249;28;20051;-74
2022/05/27 02:08:39;;;;;;;8.60;2.33;;;13.50;99.90;;;;;;5061025;28;20044;-74
2022/05/27 02:11:16;;;;;;;8.10;2.10;;;13.50;99.90;;;;;;5076925;28;20051;-74
2022/05/27 02:13:56;;;;;;;7.20;2.08;;;13.50;99.90;;;;;;5078426;28;20040;-75
2022/05/27 02:16:37;;;;;;;6.00;2.17;;;13.50;99.90;;;;;;5078382;28;20059;-74
2022/05/27 02:19:12;;;;;;;6.00;2.40;;;13.50;99.90;;;;;;5076743;28;20048;-75
2022/05/27 02:22:06;;;;;;;6.35;1.92;;;13.50;99.90;;;;;;5060232;28;20040;-74
2022/05/27 02:24:42;;;;;;;6.45;2.05;;;13.50;99.90;;;;;;5026695;28;20501;-74
2022/05/27 02:27:16;;;;;;;6.63;2.38;;;13.50;99.90;;;;;;5060507;28;20048;-73
2022/05/27 02:29:52;;;;;;;7.22;2.20;;;13.50;99.90;;;;;;5077857;28;20044;-74
2022/05/27 02:32:37;;;;;;;7.03;2.38;;;13.50;99.90;;;;;;5076539;28;20048;-74
2022/05/27 02:35:14;;;;;;;8.07;2.28;;;13.50;99.90;;;;;;5059919;28;20056;-74
2022/05/27 02:37:46;;;;;;;7.75;2.25;;;13.60;99.90;;;;;;5077784;28;20041;-75
2022/05/27 02:40:31;;;;;;;5.10;2.03;;;13.60;99.90;;;;;;5060182;28;20059;-74
2022/05/27 02:43:20;;;;;;;9.13;2.30;;;13.70;99.90;;;;;;5077513;28;20055;-74
2022/05/27 02:46:00;;;;;;;6.28;2.42;;;13.70;99.90;;;;;;5076407;28;20045;-75
2022/05/27 02:48:38;;;;;;;8.05;2.50;;;13.70;99.90;;;;;;5077534;28;20044;-74
2022/05/27 02:51:22;;;;;;;8.43;2.70;;;13.60;99.90;;;;;;5076805;28;20045;-75
2022/05/27 02:54:11;;;;;;;7.07;3.00;;;13.50;99.90;;;;;;5077671;28;20056;-74
2022/05/27 02:57:00;;;;;;;8.05;2.58;;;13.40;99.90;;;;;;5077335;28;20055;-74
2022/05/27 02:59:29;;;;;;;7.10;2.70;;;13.40;99.90;;;;;;5076190;28;20051;-74
2022/05/27 03:02:06;;;;;;;5.88;2.80;;;13.30;99.90;;;;;;5077540;28;20050;-74
2022/05/27 03:04:35;;;;;;;8.70;2.80;;;13.30;99.90;;;;;;5076275;28;20048;-74
2022/05/27 03:07:24;;;;;;;5.50;2.80;;;13.20;99.90;;;;;;5077096;28;20045;-74
2022/05/27 03:09:54;;;;;;;7.28;2.90;;;13.20;99.90;;;;;;5060060;28;20041;-74
2022/05/27 03:13:01;;;;;;;7.65;2.97;;;13.20;99.90;;;;;;5075911;28;20037;-74
2022/05/27 03:15:41;;;;;;;7.20;3.00;;;13.10;99.90;;;;;;5077056;28;20474;-74
2022/05/27 03:18:25;;;;;;;9.60;3.47;;;13.10;99.90;;;;;;5058151;28;20052;-75
2022/05/27 03:21:10;;;;;;;11.23;3.17;;;13.00;99.90;;;;;;5077001;28;20053;-74
2022/05/27 03:23:45;;;;;;;10.25;2.88;;;13.00;99.90;;;;;;5077056;28;20049;-74
2022/05/27 03:26:19;;;;;;;8.35;2.92;;;12.90;99.90;;;;;;5058140;28;20045;-75
2022/05/27 03:29:09;;;;;;;13.18;3.45;;;13.00;99.90;;;;;;5076856;28;20474;-74
2022/05/27 03:31:59;;;;;;;8.68;3.22;;;13.00;99.90;;;;;;5075794;28;20037;-75
2022/05/27 03:34:51;;;;;;;9.50;3.22;;;13.00;99.90;;;;;;5076232;28;20044;-75
2022/05/27 03:37:33;;;;;;;10.63;3.40;;;12.90;99.90;;;;;;5076986;28;20063;-74
2022/05/27 03:40:04;;;;;;;10.05;3.25;;;12.90;99.90;;;;;;5057734;28;20064;-74
2022/05/27 03:42:34;;;;;;;7.55;3.40;;;12.80;99.90;;;;;;5076356;28;20059;-75
2022/05/27 03:45:12;;;;;;;8.55;3.10;;;12.80;99.90;;;;;;5057549;28;20059;-74
2022/05/27 03:47:41;;;;;;;;;;;12.70;99.90;;;;;;5076826;28;20459;-74
2022/05/27 03:50:13;;;;;;;10.82;3.47;;;12.70;99.90;;;;;;5076494;28;19943;-74
2022/05/27 03:52:43;;;;;;;8.77;3.72;;;12.70;99.90;;;;;;5075223;28;20056;-74
2022/05/27 03:55:15;;;;;;;10.50;3.45;;;12.60;99.90;;;;;;5058798;28;20056;-74
2022/05/27 03:57:43;;;;;;;8.63;3.45;;;12.60;99.90;;;;;;5076429;28;20375;-74
2022/05/27 04:00:13;;;;;;;9.40;3.78;;;12.60;99.90;;;;;;5057483;28;20060;-74
2022/05/27 04:02:41;;;;;;;9.55;4.20;;;12.60;99.90;;;;;;5075740;28;20056;-74
2022/05/27 04:05:12;;;;;;;10.43;3.85;;;12.60;99.90;;;;;;5074238;28;20067;-74
2022/05/27 04:07:39;;;;;;;12.27;3.85;;;12.60;99.90;;;;;;5075817;28;20055;-74
2022/05/27 04:10:08;;;;;;;15.45;3.72;;;12.50;99.90;;;;;;5058474;28;20490;-74
2022/05/27 04:12:39;;;;;;;7.47;3.80;;;12.50;99.90;;;;;;5057572;28;20044;-74
2022/05/27 04:15:07;;;;;;;9.07;4.15;;;12.50;99.90;;;;;;5058577;28;20060;-75
2022/05/27 04:17:35;;;;;;;15.02;4.35;;;12.50;99.90;;;;;;5075580;28;20053;-75
2022/05/27 04:20:02;;;;;;;10.98;4.18;;;12.50;99.90;;;;;;5074459;28;20055;-74
2022/05/27 04:22:30;;;;;;;9.48;3.97;;;12.50;99.90;;;;;;5058100;28;20475;-74
2022/05/27 04:24:58;;;;;;;12.95;4.38;;;12.50;99.90;;;;;;5075037;28;20044;-74
2022/05/27 04:27:27;;;;;;;11.73;4.35;;;12.50;99.90;;;;;;5075287;28;20371;-74
2022/05/27 04:29:55;;;;;;;11.23;4.60;;;12.50;99.90;;;;;;5075485;28;20359;-74
2022/05/27 04:32:22;;;;;;;10.77;4.40;;;12.50;99.90;;;;;;5074440;28;20041;-74
2022/05/27 04:34:50;;;;;;;11.57;4.53;;;12.60;99.90;;;;;;5075209;28;20040;-75
2022/05/27 04:37:20;;;;;;;11.93;4.82;;;12.60;99.90;;;;;;5075462;28;20045;-74
2022/05/27 04:39:48;;;;;;;8.55;4.30;;;12.60;99.90;;;;;;5074103;28;20052;-75
2022/05/27 04:42:16;;;;;;;10.55;4.35;;;12.60;99.90;;;;;;5075673;28;20490;-74
2022/05/27 04:44:44;;;;;;;10.07;4.10;;;12.60;99.90;;;;;;5073908;28;20052;-74
2022/05/27 04:47:12;;;;;;;10.07;4.07;;;12.70;99.90;;;;;;5075022;28;20386;-74
2022/05/27 04:49:50;;;;;;;10.52;4.30;;;12.70;99.90;;;;;;5075501;28;20044;-74
2022/05/27 04:52:26;;;;;;;9.02;3.58;;;12.80;99.90;;;;;;5073874;28;20041;-74
2022/05/27 04:54:56;;;;;;;12.88;4.35;;;12.80;99.90;;;;;;5057762;28;20048;-73
2022/05/27 04:57:30;;;;;;;10.05;3.95;;;12.80;99.90;;;;;;5075454;28;20052;-74
2022/05/27 04:59:58;;;;;;;8.02;3.65;;;12.90;99.90;;;;;;5073766;28;20048;-74
2022/05/27 05:02:26;;;;;;;9.98;3.88;;;12.90;99.90;;;;;;5074948;28;20048;-74
2022/05/27 05:05:00;;;;;;;7.75;4.18;;;13.00;99.90;;;;;;5073810;28;20085;-75
2022/05/27 05:07:29;;;;;;;10.75;3.58;;;13.00;99.90;;;;;;5074649;28;20045;-73
2022/05/27 05:09:58;;;;;;;10.77;3.75;;;13.00;99.90;;;;;;5074728;28;20052;-73
2022/05/27 05:12:25;;;;;;;7.07;3.50;;;13.00;99.90;;;;;;5073588;28;20056;-74
2022/05/27 05:14:53;;;;;;;7.38;3.30;;;13.00;99.90;;;;;;5074740;28;20051;-74
2022/05/27 05:17:22;;;;;;;7.20;3.30;;;13.10;99.90;;;;;;5074668;28;20036;-74
2022/05/27 05:19:53;;;;;;;;;;;13.10;99.90;;;;;;5074135;28;20355;-74
2022/05/27 05:22:22;;;;;;;7.97;3.28;;;13.20;99.90;;;;;;5074891;28;20373;-74
2022/05/27 05:24:53;;;;;;;7.53;3.17;;;13.20;99.90;;;;;;5073456;28;20356;-74
2022/05/27 05:27:25;;;;;;;10.35;3.10;;;13.30;99.90;;;;;;5075048;28;20443;-74
2022/05/27 05:29:54;;;;;;;7.47;2.78;;;13.40;99.90;;;;;;5074589;28;20111;-73
2022/05/27 05:32:22;;;;;;;8.32;2.92;;;13.50;99.90;;;;;;5073544;28;20044;-73
2022/05/27 05:34:54;;;;;;;9.15;2.63;;;13.60;99.90;;;;;;5057706;28;20044;-73
2022/05/27 05:37:22;;;;;;;7.97;2.80;;;13.60;99.90;;;;;;5074654;28;20049;-73
2022/05/27 05:39:50;;;;;;;9.63;3.13;;;13.70;99.90;;;;;;5055993;28;20494;-73
2022/05/27 05:42:18;;;;;;;6.97;2.70;;;13.70;99.90;;;;;;5074628;28;20052;-73
2022/05/27 05:44:45;;;;;;;10.55;2.97;;;13.70;99.90;;;;;;5073407;28;20382;-74
2022/05/27 05:47:14;;;;;;;7.45;2.72;;;13.70;99.90;;;;;;5057050;28;20052;-73
2022/05/27 05:49:42;;;;;;;7.90;3.10;;;13.60;99.90;;;;;;5074284;28;20469;-73
2022/05/27 05:52:09;;;;;;;9.25;3.25;;;13.60;99.90;;;;;;5073419;28;20450;-74
2022/05/27 05:54:37;;;;;;;7.75;3.20;;;13.60;99.90;;;;;;5056738;28;20059;-74
2022/05/27 05:57:05;;;;;;;8.93;3.47;;;13.60;99.90;;;;;;5056800;28;20040;-74
2022/05/27 05:59:35;;;;;;;7.13;2.80;;;13.60;99.90;;;;;;5073164;28;20071;-74
2022/05/27 06:02:03;;;;;;;8.48;2.80;;;13.60;99.90;;;;;;5057110;28;20045;-74
2022/05/27 06:04:31;;;;;;;7.90;2.90;;;13.70;99.90;;;;;;5055587;28;20048;-73
2022/05/27 06:06:59;;;;;;;9.25;3.08;;;13.80;99.90;;;;;;5074139;28;20063;-73
2022/05/27 06:09:26;;;;;;;8.70;3.03;;;14.00;99.90;;;;;;5056691;28;20041;-73
2022/05/27 06:11:56;;;;;;;6.43;2.40;;;14.20;99.90;;;;;;5073339;28;20055;-73
2022/05/27 06:14:23;;;;;;;7.55;2.60;;;14.30;99.90;;;;;;5074395;28;20052;-74
2022/05/27 06:16:51;;;;;;;6.55;2.55;;;14.40;99.90;;;;;;5074399;28;20040;-74
2022/05/27 06:19:19;;;;;;;9.55;2.70;;;14.50;99.90;;;;;;5055558;28;20064;-73
2022/05/27 06:21:46;;;;;;;14.95;3.08;;;14.40;99.90;;;;;;5074335;28;20143;-73
2022/05/27 06:24:14;;;;;;;10.13;2.78;;;14.40;99.90;;;;;;5056951;28;20057;-74
2022/05/27 06:26:41;;;;;;;13.60;2.80;;;14.40;99.90;;;;;;5073830;28;20048;-74
2022/05/27 06:34:42;;;;;;;13.82;2.92;;;14.60;99.90;;;;;;5077418;28;20040;-73
2022/05/27 06:37:17;;;;;;;15.43;2.65;;;14.70;99.90;;;;;;5053129;28;20041;-83
2022/05/27 06:39:45;;;;;;;9.55;2.42;;;14.80;99.90;;;;;;5057090;28;20459;-81
2022/05/27 06:42:15;;;;;;;9.88;2.65;;;14.80;99.90;;;;;;5075308;28;20056;-81
2022/05/27 06:45:04;;;;;;;12.25;2.75;;;14.90;99.90;;;;;;5075450;28;20356;-81
2022/05/27 06:47:32;;;;;;;9.75;2.63;;;14.90;99.90;;;;;;5077083;28;20044;-81
2022/05/27 06:49:59;;;;;;;13.75;2.72;;;15.00;99.90;;;;;;5077629;28;20459;-80
2022/05/27 06:52:30;;;;;;;9.48;2.60;;;15.20;99.90;;;;;;5059162;28;20045;-81
2022/05/27 06:55:00;;;;;;;12.93;2.50;;;15.40;99.90;;;;;;5076692;28;20044;-81
2022/05/27 06:57:29;;;;;;;10.75;2.85;;;15.50;99.90;;;;;;5076983;28;20375;-84
2022/05/27 06:59:56;;;;;;;10.05;2.47;;;15.60;99.90;;;;;;5075777;28;20045;-84
2022/05/27 07:02:24;;;;;;;12.05;2.65;;;15.70;99.90;;;;;;5076950;28;20056;-81
2022/05/27 07:04:52;;;;;;;;;;;15.70;99.90;;;;;;5076265;28;20049;-82
2022/05/27 07:07:29;;;;;;;10.27;2.53;;;15.70;99.90;;;;;;5059068;28;19920;-81
2022/05/27 07:10:02;;;;;;;16.30;2.90;;;15.80;99.90;;;;;;5076515;28;20494;-82
2022/05/27 07:12:30;;;;;;;10.85;2.92;;;15.80;99.90;;;;;;5057956;28;20067;-83
2022/05/27 07:14:58;;;;;;;11.00;3.05;;;15.80;99.90;;;;;;5076621;28;20049;-83
2022/05/27 07:17:29;;;;;;;15.20;2.78;;;15.80;99.90;;;;;;5059042;28;20041;-85
2022/05/27 07:19:56;;;;;;;14.88;3.08;;;15.80;99.90;;;;;;5058149;28;20044;-82
2022/05/27 07:22:25;;;;;;;19.05;3.50;;;15.80;99.90;;;;;;5076577;28;20045;-82
2022/05/27 07:24:53;;;;;;;13.55;2.97;;;15.90;99.90;;;;;;5057738;28;20067;-81
2022/05/27 07:27:21;;;;;;;12.23;2.70;;;15.90;99.90;;;;;;5058760;28;20059;-82
2022/05/27 07:29:49;;;;;;;16.13;2.90;;;15.90;99.90;;;;;;5042254;28;20040;-82
2022/05/27 07:32:17;;;;;;;16.30;3.17;;;15.90;99.90;;;;;;5058021;28;20064;-83
2022/05/27 07:34:48;;;;;;;13.52;3.00;;;16.00;99.90;;;;;;5059607;28;20059;-82
2022/05/27 07:37:16;;;;;;;13.43;2.90;;;16.10;99.90;;;;;;5076759;28;20036;-83
2022/05/27 07:39:45;;;;;;;16.58;3.38;;;16.10;99.90;;;;;;5075683;28;20041;-83
2022/05/27 07:42:13;;;;;;;10.82;2.75;;;16.20;99.90;;;;;;5077152;28;20048;-83
2022/05/27 07:44:40;;;;;;;11.27;2.83;;;16.00;99.90;;;;;;5075487;28;20056;-83
2022/05/27 07:47:08;;;;;;;17.85;3.35;;;15.90;99.90;;;;;;5058881;28;20056;-83
2022/05/27 07:49:37;;;;;;;17.13;3.28;;;15.80;99.90;;;;;;5076719;28;20055;-83
2022/05/27 07:52:11;;;;;;;14.98;3.28;;;15.70;99.90;;;;;;5075645;28;20036;-82
2022/05/27 07:54:39;;;;;;;16.10;3.13;;;15.70;99.90;;;;;;5077178;28;20045;-82
2022/05/27 08:00:07;;;;;;;13.32;2.80;;;15.70;99.90;;;;;;5062218;28;20063;-82
2022/05/27 08:02:40;;;;;;;12.63;3.05;;;15.90;99.90;;;;;;5076085;28;20367;-81
2022/05/27 08:05:21;;;;;;;15.35;3.10;;;16.00;99.90;;;;;;5075027;28;20391;-82
2022/05/27 08:07:50;;;;;;;11.27;3.17;;;15.90;99.90;;;;;;5076335;28;20048;-82
2022/05/27 08:10:22;;;;;;;17.17;3.30;;;15.80;99.90;;;;;;5076135;28;20041;-82
2022/05/27 08:12:49;;;;;;;14.90;3.10;;;15.80;99.90;;;;;;5075222;28;20043;-82
2022/05/27 08:15:17;;;;;;;15.65;3.65;;;15.70;99.90;;;;;;5076248;28;20051;-80
2022/05/27 08:17:45;;;;;;;12.13;3.42;;;15.70;99.90;;;;;;5058950;28;20059;-81
2022/05/27 08:20:20;;;;;;;17.98;3.00;;;15.70;99.90;;;;;;5075349;28;20051;-80
2022/05/27 08:22:49;;;;;;;12.35;3.22;;;15.70;99.90;;;;;;5075915;28;20048;-82
2022/05/27 08:25:17;;;;;;;14.82;3.35;;;15.70;99.90;;;;;;5073780;28;20048;-82
2022/05/27 08:27:48;;;;;;;19.08;3.25;;;15.90;99.90;;;;;;5075289;28;20056;-82
2022/05/27 08:30:21;;;;;;;18.27;3.58;;;16.00;99.90;;;;;;5075350;28;20041;-80
2022/05/27 08:32:53;;;;;;;12.43;3.38;;;16.20;99.90;;;;;;5074097;28;20406;-81
2022/05/27 08:38:37;;;;;;;20.67;3.28;;;16.40;99.20;;;;;;5074150;28;20470;-81
2022/05/27 08:41:28;;;;;;;14.65;3.30;;;16.40;98.90;;;;;;5057439;28;20060;-82
2022/05/27 08:44:14;;;;;;;16.38;3.45;;;16.50;98.70;;;;;;5058042;28;20055;-81
2022/05/27 08:46:47;;;;;;;19.38;3.35;;;16.70;98.70;;;;;;5056269;28;20053;-81
2022/05/27 08:49:21;;;;;;;13.95;3.45;;;16.80;98.70;;;;;;5074529;28;20049;-81
2022/05/27 08:52:08;;;;;;;16.42;3.83;;;16.80;97.90;;;;;;5056791;28;20471;-81
2022/05/27 08:54:54;;;;;;;16.30;3.28;;;16.90;97.50;;;;;;5057647;28;20051;-81
2022/05/27 09:00:20;;;;;;;16.10;3.30;;;16.70;97.60;;;;;;5073842;28;20041;-82
2022/05/27 09:03:01;;;;;;;14.38;3.80;;;16.70;97.40;;;;;;5074814;28;20285;-80
2022/05/27 09:05:32;;;;;;;17.13;3.75;;;16.70;97.50;;;;;;5056087;28;20501;-81
2022/05/27 09:08:05;;;;;;;16.70;3.53;;;16.70;97.60;;;;;;5056937;28;20475;-82
2022/05/27 09:10:58;;;;;;;17.40;3.75;;;16.90;97.70;;;;;;5056280;28;20052;-81
2022/05/27 09:13:29;;;;;;;15.65;3.58;;;16.90;97.10;;;;;;5056380;28;20463;-81
2022/05/27 09:16:23;;;;;;;16.55;3.50;;;17.00;97.30;;;;;;5074913;28;20045;-81
2022/05/27 09:19:18;;;;;;;18.92;4.03;;;17.10;96.20;;;;;;5056324;28;20467;-82
2022/05/27 09:22:07;;;;;;;16.00;3.80;;;17.00;95.00;;;;;;5057266;28;20059;-81
2022/05/27 09:24:58;;;;;;;16.80;4.00;;;17.00;96.20;;;;;;5073694;28;20048;-81
2022/05/27 09:27:52;;;;;;;16.02;3.40;;;17.10;96.40;;;;;;5074905;28;20048;-80
2022/05/27 09:30:20;;;;;;;18.70;3.83;;;17.10;95.80;;;;;;4993457;28;20064;-80
2022/05/27 09:32:58;;;;;;;16.38;3.80;;;17.10;95.70;;;;;;5073365;28;20041;-81
2022/05/27 09:35:37;;;;;;;15.73;3.53;;;17.10;95.90;;;;;;5075258;28;20371;-81
2022/05/27 09:38:22;;;;;;;20.58;4.20;;;17.20;95.90;;;;;;5073600;28;20056;-80
2022/05/27 09:40:58;;;;;;;23.25;4.00;;;17.30;95.60;;;;;;5056922;28;20048;-81
2022/05/27 09:43:45;;;;;;;16.35;3.85;;;17.10;95.10;;;;;;5057018;28;20040;-82
2022/05/27 09:46:16;;;;;;;16.15;3.50;;;16.90;93.30;;;;;;5073315;28;20119;-81
2022/05/27 09:48:44;;;;;;;15.65;3.75;;;16.70;94.60;;;;;;5074730;28;20056;-81
2022/05/27 09:51:15;;;;;;;17.23;4.10;;;16.70;94.00;;;;;;5073156;28;20052;-81
2022/05/27 09:53:53;;;;;;;21.48;4.20;;;16.70;94.90;;;;;;5074626;28;20041;-81
2022/05/27 09:56:43;;;;;;;19.75;4.10;;;16.80;93.90;;;;;;5056878;28;20486;-81
2022/05/27 09:59:24;;;;;;;18.48;3.95;;;16.70;93.60;;;;;;5056093;28;20379;-81
2022/05/27 10:01:51;;;;;;;17.40;4.30;;;16.70;93.30;;;;;;5075524;28;20044;-80
2022/05/27 10:04:20;;;;;;;20.63;4.80;;;16.60;93.90;;;;;;5078145;28;20040;-80
2022/05/27 10:06:48;;;;;;;18.63;3.95;;;16.60;94.00;;;;;;5076934;28;20056;-82
2022/05/27 10:09:33;;;;;;;19.42;4.05;;;16.70;93.00;;;;;;5060764;28;20045;-80
2022/05/27 10:12:00;;;;;;;22.50;4.50;;;16.70;92.70;;;;;;5076999;28;20048;-81
2022/05/27 10:14:33;;;;;;;20.00;4.60;;;16.70;92.40;;;;;;5077964;28;20040;-81
2022/05/27 10:17:13;;;;;;;23.42;4.63;;;16.60;92.80;;;;;;5078344;28;20036;-83
2022/05/27 10:19:46;;;;;;;17.35;4.55;;;16.60;93.00;;;;;;5075989;28;20051;-84
2022/05/27 10:22:27;;;;;;;18.55;4.72;;;16.50;93.20;;;;;;5077512;28;20049;-83
2022/05/27 10:25:06;;;;;;;16.15;4.07;;;16.50;92.80;;;;;;5058961;28;20063;-83
2022/05/27 10:27:50;;;;;;;19.65;4.30;;;16.40;92.40;;;;;;5077524;28;20055;-83
2022/05/27 10:30:27;;;;;;;21.52;4.80;;;16.50;93.10;;;;;;5077309;28;20048;-83
2022/05/27 10:33:20;;;;;;;19.67;4.90;;;16.50;92.80;;;;;;5058518;28;20047;-83
2022/05/27 10:35:50;;;;;;;20.65;4.32;;;16.50;93.60;;;;;;5059717;28;20040;-83
2022/05/27 10:38:27;;;;;;;20.67;4.28;;;16.60;92.90;;;;;;5076126;28;20049;-86
2022/05/27 10:41:07;;;;;;;26.00;4.40;;;16.70;93.10;;;;;;5059740;28;20045;-83
2022/05/27 10:44:01;;;;;;;21.65;4.35;;;16.80;92.80;;;;;;5059595;28;20048;-87
2022/05/27 10:46:33;;;;;;;20.13;4.68;;;16.80;92.00;;;;;;5025721;28;20063;-87
2022/05/27 10:49:10;;;;;;;17.77;4.45;;;16.90;93.00;;;;;;5077430;28;20047;-86
2022/05/27 10:51:49;;;;;;;21.40;4.65;;;17.00;93.10;;;;;;5058648;28;20272;-86
2022/05/27 10:54:44;;;;;;;15.70;4.45;;;17.00;92.30;;;;;;5077490;28;20052;-87
2022/05/27 11:03:58;;;;;;;18.48;4.63;;;17.10;93.10;;;;;;5075085;28;19920;-86
2022/05/27 11:06:44;;;;;;;21.92;4.25;;;17.20;91.80;;;;;;5076033;28;20402;-86
2022/05/27 11:09:15;;;;;;;19.25;4.55;;;17.20;91.00;;;;;;5059668;28;20455;-84
2022/05/27 11:12:01;;;;;;;27.27;4.75;;;17.20;90.60;;;;;;5075870;28;20048;-85
2022/05/27 11:15:11;;;;;;;14.48;3.83;;;17.20;91.10;;;;;;5060444;28;20056;-88
2022/05/27 11:18:09;;;;;;;21.77;4.57;;;17.30;90.30;;;;;;5059987;28;20329;-89
2022/05/27 11:21:32;;;;;;;18.20;4.82;;;17.30;90.30;;;;;;5059875;28;20040;-86
2022/05/27 11:24:00;;;;;;;23.23;4.63;;;16.60;89.10;;;;;;4944813;28;20054;-88
2022/05/27 11:27:05;;;;;;;22.58;4.80;;;17.30;89.80;;;;;;4975040;28;20050;-87
2022/05/27 11:29:48;;;;;;;24.35;4.68;;;17.40;90.00;;;;;;5049409;28;20481;-87
2022/05/27 11:32:38;;;;;;;21.00;4.10;;;17.40;90.00;;;;;;5058396;28;20036;-87
2022/05/27 11:35:24;;;;;;;23.17;4.60;;;17.50;88.70;;;;;;5076714;28;20045;-85
2022/05/27 11:38:14;;;;;;;16.02;4.68;;;17.50;88.10;;;;;;5041144;28;20051;-87
2022/05/27 11:40:57;;;;;;;22.27;4.78;;;17.50;88.10;;;;;;5076696;28;20048;-84
2022/05/27 11:43:40;;;;;;;19.70;4.07;;;17.50;90.20;;;;;;5041883;28;20059;-84
2022/05/27 11:46:38;;;;;;;22.20;4.95;;;17.70;87.70;;;;;;5074798;28;20052;-84
2022/05/27 11:49:30;;;;;;;22.65;4.20;;;17.70;88.10;;;;;;5058437;28;20055;-83
2022/05/27 11:52:26;;;;;;;18.05;4.20;;;17.50;86.30;;;;;;5057799;28;20047;-80
2022/05/27 11:55:44;;;;;;;23.02;4.28;;;17.80;89.60;;;;;;5058377;28;20115;-86
2022/05/27 11:59:39;;;;;;;15.73;3.90;;;17.90;88.40;;;;;;4996993;28;20053;-85
2022/05/27 12:03:56;;;;;;;21.98;4.32;;;18.50;88.80;;;;;;5004680;28;20062;-86
2022/05/27 12:10:24;;;;;;;18.23;4.50;;;18.40;86.70;;;;;;5010458;28;20049;-85
2022/05/27 12:13:02;;;;;;;16.48;4.13;;;18.60;89.30;;;;;;5032667;28;20056;-84
2022/05/27 12:15:54;;;;;;;16.48;4.32;;;18.40;85.90;;;;;;5001093;28;20045;-85
2022/05/27 12:19:03;;;;;;;20.42;4.80;;;18.40;87.00;;;;;;5016099;28;20053;-87
2022/05/27 12:22:36;;;;;;;14.27;4.32;;;18.70;86.90;;;;;;5020821;28;20057;-86
2022/05/27 12:25:22;;;;;;;18.48;3.90;;;18.50;87.70;;;;;;4953623;28;20062;-83
2022/05/27 12:27:51;;;;;;;18.45;3.65;;;18.60;86.40;;;;;;5044004;28;20052;-84
2022/05/27 12:30:39;;;;;;;17.08;4.15;;;18.70;86.40;;;;;;5075344;28;20049;-83
2022/05/27 12:33:30;;;;;;;19.48;4.10;;;18.80;85.00;;;;;;5059514;28;20049;-84
2022/05/27 12:36:06;;;;;;;18.20;4.32;;;18.80;85.40;;;;;;5042176;28;20048;-85
2022/05/27 12:38:44;;;;;;;14.57;3.88;;;18.80;85.30;;;;;;5055877;28;20048;-85
2022/05/27 12:41:18;;;;;;;20.92;4.53;;;18.90;83.90;;;;;;5058331;28;20052;-86
2022/05/27 12:43:59;;;;;;;13.45;3.70;;;18.90;84.00;;;;;;5057919;28;20044;-84
2022/05/27 12:46:46;;;;;;;16.35;3.90;;;18.90;83.70;;;;;;5074208;28;20048;-84
2022/05/27 12:49:36;;;;;;;13.82;3.90;;;19.00;82.00;;;;;;5075541;28;20044;-85
2022/05/27 12:52:08;;;;;;;18.05;4.30;;;19.10;82.70;;;;;;5074123;28;20068;-85
2022/05/27 12:54:42;;;;;;;17.73;4.20;;;19.10;82.00;;;;;;5057582;28;20048;-86
2022/05/27 13:03:40;;;;;;;19.40;4.47;;;19.40;81.20;;;;;;5074821;28;20482;-84
2022/05/27 13:06:14;;;;;;;19.63;4.37;;;19.60;83.00;;;;;;5074014;28;20383;-85
2022/05/27 13:08:51;;;;;;;15.13;4.15;;;19.70;81.70;;;;;;5057640;28;20289;-85
2022/05/27 13:12:04;;;;;;;16.10;4.15;;;19.80;81.20;;;;;;5074574;28;20047;-87
2022/05/27 13:15:20;;;;;;;17.45;3.92;;;19.90;79.90;;;;;;5042398;28;20044;-90
2022/05/27 13:18:54;;;;;;;15.23;4.10;;;20.00;78.60;;;;;;5044531;28;20056;-88
2022/05/27 13:26:17;;;;;;;;;;;;;;;;;;;;;
2022/05/27 13:30:38;;;;;;;17.98;4.50;;;21.90;78.00;;;;;;4947366;28;20065;-89
2022/05/27 13:33:46;;;;;;;17.02;4.22;;;23.40;72.50;;;;;;5019210;28;20059;-89
2022/05/27 13:37:52;;;;;;;14.82;4.20;;;25.70;69.40;;;;;;5038312;28;20052;-89
2022/05/27 13:42:26;;;;;;;;;;;;;;;;;;;;;
2022/05/27 13:50:47;;;;;;;13.30;3.63;;;28.40;61.80;;;;;;4866517;29;19927;-89
2022/05/27 13:59:26;;;;;;;13.05;3.90;;;29.20;58.00;;;;;;4895365;29;20048;-89
2022/05/27 14:03:01;;;;;;;13.30;3.53;;;29.70;58.30;;;;;;4945094;28;20054;-90
2022/05/27 14:06:36;;;;;;;18.20;4.30;;;31.10;59.60;;;;;;4968234;28;20517;-92
2022/05/27 14:10:12;;;;;;;18.13;4.55;;;31.40;57.40;;;;;;4967508;28;20370;-91
2022/05/27 14:13:56;;;;;;;21.50;4.47;;;31.10;56.30;;;;;;4920750;29;20050;-91
2022/05/27 14:16:47;;;;;;;15.95;4.03;;;31.60;57.30;;;;;;4948131;28;20058;-89
2022/05/27 14:19:47;;;;;;;13.07;3.90;;;31.80;57.90;;;;;;4998848;28;20054;-90
2022/05/27 14:22:39;;;;;;;18.15;4.40;;;32.30;56.00;;;;;;4981638;28;20350;-90
2022/05/27 14:25:41;;;;;;;14.30;3.88;;;32.80;54.70;;;;;;5061918;28;20383;-89
2022/05/27 14:28:52;;;;;;;15.32;4.28;;;32.80;54.30;;;;;;5063345;28;20044;-89
2022/05/27 14:31:48;;;;;;;13.40;4.18;;;32.80;53.20;;;;;;4964656;28;20061;-88
2022/05/27 14:34:28;;;;;;;13.63;3.83;;;32.40;52.60;;;;;;4932888;28;20059;-89
2022/05/27 14:37:30;;;;;;;12.32;3.83;;;32.50;53.30;;;;;;5037817;28;20049;-89